Time;durP1;ratioP1;P1;durP2;ratioP2;P2;SDS_P1;SDS_P2;PMS_P1;PMS_P2;Temp;Humidity;BMP_temperature;BMP_pressure;BME280_temperature;BME280_humidity;BME280_pressure;Samples;Min_cycle;Max_cycle;Signal;HPM_P1;HPM_P2
2021/01/23 00:01:19;;;;;;;14.30;8.82;;;;;;;;;;5042150;28;20018;-79
2021/01/23 00:03:45;;;;;;;13.68;8.80;;;;;;;;;;5047906;28;20488;-78
2021/01/23 00:06:12;;;;;;;13.90;9.25;;;;;;;;;;5057938;28;20073;-81
2021/01/23 00:08:38;;;;;;;16.13;9.15;;;;;;;;;;5049859;28;20104;-78
2021/01/23 00:11:04;;;;;;;15.07;8.90;;;;;;;;;;5046376;28;20053;-79
2021/01/23 00:13:30;;;;;;;14.15;8.65;;;;;;;;;;5046247;28;20033;-78
2021/01/23 00:15:56;;;;;;;14.52;9.48;;;;;;;;;;5050791;28;20036;-76
2021/01/23 00:18:22;;;;;;;15.25;8.93;;;;;;;;;;5051405;28;20476;-78
2021/01/23 00:20:48;;;;;;;14.95;9.65;;;;;;;;;;5054031;28;20021;-77
2021/01/23 00:23:14;;;;;;;15.23;9.25;;;;;;;;;;5054532;28;20029;-77
2021/01/23 00:25:40;;;;;;;14.93;9.60;;;;;;;;;;5054719;28;20052;-78
2021/01/23 00:28:07;;;;;;;15.43;9.60;;;;;;;;;;5053604;28;20395;-79
2021/01/23 00:30:33;;;;;;;17.85;8.82;;;;;;;;;;5053894;28;20491;-77
2021/01/23 00:32:59;;;;;;;15.75;9.95;;;;;;;;;;5053961;28;20017;-80
2021/01/23 00:35:25;;;;;;;15.18;7.95;;;;;;;;;;5053560;28;20041;-78
2021/01/23 00:37:53;;;;;;;17.42;9.18;;;;;;;;;;5053848;28;20017;-77
2021/01/23 00:40:19;;;;;;;15.85;8.07;;;;;;;;;;5054314;28;20497;-78
2021/01/23 00:42:45;;;;;;;16.08;10.77;;;;;;;;;;5053516;28;20029;-78
2021/01/23 00:45:11;;;;;;;19.02;10.35;;;;;;;;;;5052301;28;20158;-77
2021/01/23 00:47:37;;;;;;;19.38;11.32;;;;;;;;;;5052977;28;20040;-77
2021/01/23 00:50:03;;;;;;;18.25;12.15;;;;;;;;;;5053576;28;20395;-77
2021/01/23 00:52:30;;;;;;;17.05;10.93;;;;;;;;;;5054086;28;20476;-79
2021/01/23 00:54:56;;;;;;;18.58;12.07;;;;;;;;;;5053064;28;20119;-77
2021/01/23 00:57:22;;;;;;;19.80;12.85;;;;;;;;;;5036400;28;20451;-77
2021/01/23 00:59:48;;;;;;;18.58;11.88;;;;;;;;;;5053476;28;20064;-78
2021/01/23 01:02:14;;;;;;;19.63;10.90;;;;;;;;;;5052051;28;20033;-77
2021/01/23 01:04:40;;;;;;;16.73;10.13;;;;;;;;;;5055708;28;20059;-77
2021/01/23 01:07:06;;;;;;;19.80;10.77;;;;;;;;;;5055967;28;20407;-77
2021/01/23 01:09:33;;;;;;;21.80;12.90;;;;;;;;;;5036622;28;20032;-77
2021/01/23 01:11:58;;;;;;;21.25;12.93;;;;;;;;;;5035353;28;20126;-77
2021/01/23 01:14:24;;;;;;;17.95;10.27;;;;;;;;;;5052518;28;20484;-77
2021/01/23 01:16:50;;;;;;;22.42;12.10;;;;;;;;;;5034470;28;20448;-77
2021/01/23 01:19:16;;;;;;;17.13;9.00;;;;;;;;;;5053764;28;20112;-77
2021/01/23 01:21:42;;;;;;;20.35;11.23;;;;;;;;;;5053462;28;20384;-77
2021/01/23 01:24:09;;;;;;;26.05;14.15;;;;;;;;;;5053451;28;20041;-77
2021/01/23 01:26:35;;;;;;;24.40;14.70;;;;;;;;;;5052352;28;20036;-78
2021/01/23 01:29:01;;;;;;;24.40;13.93;;;;;;;;;;5053971;28;20605;-77
2021/01/23 01:31:27;;;;;;;21.67;12.63;;;;;;;;;;5054145;28;20029;-78
2021/01/23 01:33:53;;;;;;;20.58;9.90;;;;;;;;;;5036519;28;20043;-78
2021/01/23 01:36:19;;;;;;;21.08;11.05;;;;;;;;;;5053550;28;20500;-79
2021/01/23 01:38:45;;;;;;;23.85;12.45;;;;;;;;;;5050371;28;20052;-78
2021/01/23 01:41:11;;;;;;;24.15;13.00;;;;;;;;;;5051655;28;20083;-77
2021/01/23 01:43:37;;;;;;;22.35;12.02;;;;;;;;;;5051261;28;20131;-78
2021/01/23 01:46:04;;;;;;;19.15;10.27;;;;;;;;;;5052071;28;20028;-76
2021/01/23 01:48:30;;;;;;;17.90;10.40;;;;;;;;;;5051805;28;20017;-77
2021/01/23 01:50:56;;;;;;;16.10;8.02;;;;;;;;;;5052645;28;20418;-77
2021/01/23 01:53:24;;;;;;;10.75;7.05;;;;;;;;;;5052367;28;20033;-77
2021/01/23 01:55:50;;;;;;;16.52;8.40;;;;;;;;;;5049890;28;20031;-77
2021/01/23 01:58:17;;;;;;;11.98;6.22;;;;;;;;;;5051385;28;20112;-78
2021/01/23 02:00:43;;;;;;;15.38;7.93;;;;;;;;;;5051499;28;20036;-78
2021/01/23 02:03:27;;;;;;;14.30;8.63;;;;;;;;;;5053335;28;20092;-77
2021/01/23 02:06:11;;;;;;;10.75;5.57;;;;;;;;;;5053929;28;20037;-76
2021/01/23 02:08:45;;;;;;;10.00;4.47;;;;;;;;;;5055830;28;20152;-77
2021/01/23 02:11:14;;;;;;;5.18;2.90;;;;;;;;;;5056549;28;20064;-77
2021/01/23 02:13:43;;;;;;;5.97;2.97;;;;;;;;;;5034873;28;20140;-77
2021/01/23 02:16:12;;;;;;;4.67;2.57;;;;;;;;;;5051742;28;20040;-77
2021/01/23 02:18:40;;;;;;;6.57;3.87;;;;;;;;;;5052860;28;20313;-77
2021/01/23 02:21:19;;;;;;;3.37;2.00;;;;;;;;;;5051398;28;20364;-77
2021/01/23 02:23:46;;;;;;;4.37;2.53;;;;;;;;;;5051768;28;20029;-78
2021/01/23 02:26:18;;;;;;;4.73;2.27;;;;;;;;;;5037308;28;20480;-77
2021/01/23 02:28:59;;;;;;;5.50;2.43;;;;;;;;;;5018896;28;20116;-78
2021/01/23 02:31:27;;;;;;;4.83;1.70;;;;;;;;;;5007553;28;20478;-77
2021/01/23 02:33:53;;;;;;;4.20;2.60;;;;;;;;;;5031533;28;20065;-77
2021/01/23 02:36:21;;;;;;;2.80;1.67;;;;;;;;;;5032708;28;20034;-78
2021/01/23 02:38:47;;;;;;;3.07;1.87;;;;;;;;;;5031821;28;20112;-78
2021/01/23 02:41:13;;;;;;;4.17;2.57;;;;;;;;;;5033546;28;20037;-78
2021/01/23 02:43:43;;;;;;;3.60;2.10;;;;;;;;;;5041855;28;20037;-77
2021/01/23 02:46:10;;;;;;;1.92;1.25;;;;;;;;;;5049908;28;20029;-79
2021/01/23 02:48:36;;;;;;;6.40;2.43;;;;;;;;;;5033098;28;20029;-79
2021/01/23 02:51:02;;;;;;;2.83;1.53;;;;;;;;;;5031777;28;20118;-78
2021/01/23 02:53:32;;;;;;;1.67;1.37;;;;;;;;;;5035333;28;20029;-78
2021/01/23 02:55:59;;;;;;;2.17;1.50;;;;;;;;;;5032312;28;20190;-78
2021/01/23 02:58:29;;;;;;;1.43;0.97;;;;;;;;;;5013942;28;20506;-79
2021/01/23 03:00:58;;;;;;;3.03;1.23;;;;;;;;;;5015165;28;20491;-77
2021/01/23 03:03:24;;;;;;;3.83;1.57;;;;;;;;;;5020304;28;20033;-78
2021/01/23 03:05:51;;;;;;;3.53;1.70;;;;;;;;;;5043854;28;20510;-78
2021/01/23 03:08:17;;;;;;;1.73;1.30;;;;;;;;;;5031499;28;20032;-78
2021/01/23 03:10:45;;;;;;;3.10;1.03;;;;;;;;;;5031661;28;20108;-79
2021/01/23 03:13:11;;;;;;;1.73;1.20;;;;;;;;;;5013259;28;20480;-77
2021/01/23 03:15:38;;;;;;;2.03;1.17;;;;;;;;;;5031676;28;20045;-77
2021/01/23 03:18:05;;;;;;;1.50;0.80;;;;;;;;;;5035319;28;20018;-78
2021/01/23 03:20:31;;;;;;;2.50;1.20;;;;;;;;;;5017844;28;20530;-79
2021/01/23 03:22:58;;;;;;;3.53;0.67;;;;;;;;;;5045342;28;20456;-78
2021/01/23 03:25:24;;;;;;;1.27;0.90;;;;;;;;;;5027757;28;20110;-77
2021/01/23 03:27:50;;;;;;;1.97;1.20;;;;;;;;;;5050410;28;20025;-76
2021/01/23 03:30:17;;;;;;;2.07;1.10;;;;;;;;;;5051380;28;20527;-77
2021/01/23 03:32:43;;;;;;;1.20;0.70;;;;;;;;;;5050330;28;20073;-77
2021/01/23 03:35:09;;;;;;;1.17;0.80;;;;;;;;;;5033017;28;20693;-79
2021/01/23 03:37:35;;;;;;;1.10;0.83;;;;;;;;;;5049530;28;20081;-78
2021/01/23 03:40:02;;;;;;;1.10;0.80;;;;;;;;;;5051139;28;20033;-77
2021/01/23 03:42:28;;;;;;;1.77;1.10;;;;;;;;;;5050814;28;20028;-78
2021/01/23 03:44:54;;;;;;;1.37;0.90;;;;;;;;;;5031780;28;20124;-76
2021/01/23 03:47:20;;;;;;;1.00;0.60;;;;;;;;;;5050250;28;20032;-78
2021/01/23 03:49:46;;;;;;;1.30;0.97;;;;;;;;;;5051214;28;20033;-77
2021/01/23 03:52:13;;;;;;;0.70;0.60;;;;;;;;;;5053987;28;20025;-77
2021/01/23 03:54:39;;;;;;;1.03;0.67;;;;;;;;;;5055022;28;20060;-76
2021/01/23 03:57:05;;;;;;;2.00;1.00;;;;;;;;;;5054617;28;20095;-77
2021/01/23 03:59:31;;;;;;;2.00;0.80;;;;;;;;;;5035500;28;20060;-78
2021/01/23 04:01:57;;;;;;;0.77;0.40;;;;;;;;;;5046521;28;20416;-77
2021/01/23 04:04:23;;;;;;;0.90;0.60;;;;;;;;;;5041032;28;20031;-77
2021/01/23 04:06:49;;;;;;;0.77;0.50;;;;;;;;;;5062484;28;20033;-77
2021/01/23 04:09:15;;;;;;;0.60;0.50;;;;;;;;;;5059181;28;20029;-76
2021/01/23 04:11:41;;;;;;;0.37;0.37;;;;;;;;;;5067380;28;20991;-76
2021/01/23 04:14:07;;;;;;;0.60;0.30;;;;;;;;;;5054119;28;20041;-77
2021/01/23 04:16:33;;;;;;;0.50;0.50;;;;;;;;;;5054494;28;20040;-77
2021/01/23 04:18:59;;;;;;;0.50;0.40;;;;;;;;;;5053660;28;20048;-77
2021/01/23 04:21:25;;;;;;;0.53;0.53;;;;;;;;;;5054284;28;20039;-76
2021/01/23 04:23:51;;;;;;;0.30;0.30;;;;;;;;;;5056922;28;20115;-76
2021/01/23 04:26:17;;;;;;;0.80;0.60;;;;;;;;;;5057041;28;20080;-77
2021/01/23 04:28:43;;;;;;;0.50;0.50;;;;;;;;;;5039889;28;20040;-76
2021/01/23 04:31:09;;;;;;;0.97;0.60;;;;;;;;;;5042104;28;20021;-76
2021/01/23 04:33:35;;;;;;;0.60;0.50;;;;;;;;;;5034712;28;20037;-77
2021/01/23 04:36:02;;;;;;;0.30;0.30;;;;;;;;;;5033964;28;20033;-78
2021/01/23 04:38:28;;;;;;;0.30;0.30;;;;;;;;;;5033673;28;20068;-78
2021/01/23 04:40:58;;;;;;;0.43;0.30;;;;;;;;;;5039162;28;20029;-76
2021/01/23 04:43:24;;;;;;;0.43;0.43;;;;;;;;;;5054189;28;20048;-77
2021/01/23 04:45:50;;;;;;;1.13;0.40;;;;;;;;;;5051002;28;20048;-79
2021/01/23 04:48:17;;;;;;;0.30;0.30;;;;;;;;;;5024443;28;20116;-77
2021/01/23 04:50:44;;;;;;;0.33;0.33;;;;;;;;;;5033904;28;20512;-77
2021/01/23 04:53:10;;;;;;;1.03;0.60;;;;;;;;;;5034349;28;20033;-76
2021/01/23 04:55:36;;;;;;;0.40;0.30;;;;;;;;;;5033623;28;20076;-77
2021/01/23 04:58:02;;;;;;;0.40;0.40;;;;;;;;;;5034669;28;20025;-79
2021/01/23 05:00:28;;;;;;;0.40;0.40;;;;;;;;;;5052239;28;20044;-78
2021/01/23 05:03:07;;;;;;;3.60;0.40;;;;;;;;;;5033344;28;20030;-77
2021/01/23 05:05:33;;;;;;;0.40;0.40;;;;;;;;;;5033296;28;20085;-76
2021/01/23 05:08:14;;;;;;;0.53;0.50;;;;;;;;;;5053976;28;20124;-76
2021/01/23 05:10:41;;;;;;;0.40;0.40;;;;;;;;;;5046236;28;20125;-77
2021/01/23 05:13:25;;;;;;;0.73;0.60;;;;;;;;;;5033026;28;20028;-77
2021/01/23 05:15:50;;;;;;;0.50;0.50;;;;;;;;;;5016235;28;20124;-78
2021/01/23 05:18:16;;;;;;;0.93;0.50;;;;;;;;;;5054263;28;20028;-77
2021/01/23 05:20:52;;;;;;;0.60;0.50;;;;;;;;;;5042657;28;20155;-78
2021/01/23 05:23:22;;;;;;;0.40;0.40;;;;;;;;;;5033559;28;20025;-77
2021/01/23 05:25:48;;;;;;;;;;;;;;;;;;5047136;28;20504;-77
2021/01/23 05:28:24;;;;;;;0.53;0.50;;;;;;;;;;5037492;28;19909;-77
2021/01/23 05:30:50;;;;;;;1.10;0.80;;;;;;;;;;5034459;28;20027;-76
2021/01/23 05:33:29;;;;;;;0.93;0.63;;;;;;;;;;5033180;28;20025;-77
2021/01/23 05:36:05;;;;;;;0.40;0.40;;;;;;;;;;5034688;28;20041;-78
2021/01/23 05:38:32;;;;;;;1.00;0.60;;;;;;;;;;5031284;28;20017;-77
2021/01/23 05:41:10;;;;;;;0.73;0.60;;;;;;;;;;5033219;28;20028;-79
2021/01/23 05:43:36;;;;;;;0.70;0.60;;;;;;;;;;5031467;28;20447;-77
2021/01/23 05:46:03;;;;;;;0.70;0.60;;;;;;;;;;5032722;28;20029;-77
2021/01/23 05:48:29;;;;;;;0.77;0.60;;;;;;;;;;5033202;28;20087;-80
2021/01/23 05:50:55;;;;;;;0.80;0.73;;;;;;;;;;5032481;28;20030;-77
2021/01/23 05:53:21;;;;;;;0.80;0.53;;;;;;;;;;5031884;28;20400;-78
2021/01/23 05:55:47;;;;;;;0.50;0.50;;;;;;;;;;5030564;28;20056;-77
2021/01/23 05:58:15;;;;;;;1.00;0.87;;;;;;;;;;5032681;28;20034;-78
2021/01/23 06:00:41;;;;;;;0.77;0.53;;;;;;;;;;5031743;28;20096;-78
2021/01/23 06:03:07;;;;;;;0.63;0.50;;;;;;;;;;5032405;28;20048;-77
2021/01/23 06:05:34;;;;;;;1.13;0.70;;;;;;;;;;5013825;28;20025;-75
2021/01/23 06:08:00;;;;;;;1.57;0.80;;;;;;;;;;5032050;28;20025;-76
2021/01/23 06:10:26;;;;;;;0.90;0.77;;;;;;;;;;5031823;28;20159;-76
2021/01/23 06:12:55;;;;;;;1.10;0.90;;;;;;;;;;5031162;28;20063;-77
2021/01/23 06:15:42;;;;;;;0.60;0.60;;;;;;;;;;5031429;28;20409;-78
2021/01/23 06:18:08;;;;;;;1.53;0.90;;;;;;;;;;5027330;28;20509;-77
2021/01/23 06:20:40;;;;;;;0.80;0.53;;;;;;;;;;5031316;28;20037;-78
2021/01/23 06:23:07;;;;;;;3.30;1.17;;;;;;;;;;5032617;28;20017;-77
2021/01/23 06:25:56;;;;;;;1.00;0.87;;;;;;;;;;5040142;28;20050;-79
2021/01/23 06:28:22;;;;;;;0.68;0.60;;;;;;;;;;5031894;28;20103;-78
2021/01/23 06:30:48;;;;;;;1.03;0.73;;;;;;;;;;5031036;28;20406;-77
2021/01/23 06:33:24;;;;;;;1.10;0.70;;;;;;;;;;5035243;28;20037;-78
2021/01/23 06:36:02;;;;;;;1.43;1.00;;;;;;;;;;5031900;28;20030;-77
2021/01/23 06:38:29;;;;;;;1.07;0.73;;;;;;;;;;5028383;28;20087;-77
2021/01/23 06:40:55;;;;;;;0.83;0.80;;;;;;;;;;5038651;28;20091;-77
2021/01/23 06:43:21;;;;;;;1.30;1.17;;;;;;;;;;5034952;28;20040;-76
2021/01/23 06:45:47;;;;;;;2.03;1.33;;;;;;;;;;5038832;28;20423;-75
2021/01/23 06:48:14;;;;;;;1.83;1.30;;;;;;;;;;5042858;28;20037;-76
2021/01/23 06:50:41;;;;;;;1.00;0.90;;;;;;;;;;5012665;28;20033;-78
2021/01/23 06:53:08;;;;;;;0.80;0.70;;;;;;;;;;5036421;28;20037;-78
2021/01/23 06:55:41;;;;;;;1.10;0.80;;;;;;;;;;5031247;28;20034;-76
2021/01/23 06:58:17;;;;;;;1.27;0.90;;;;;;;;;;5030523;28;20033;-76
2021/01/23 07:00:43;;;;;;;1.70;1.40;;;;;;;;;;5033985;28;20108;-76
2021/01/23 07:03:10;;;;;;;0.93;0.73;;;;;;;;;;5031016;28;20044;-76
2021/01/23 07:05:44;;;;;;;1.40;0.90;;;;;;;;;;5029347;28;20026;-76
2021/01/23 07:08:18;;;;;;;1.00;0.67;;;;;;;;;;5018988;28;20025;-76
2021/01/23 07:10:44;;;;;;;0.57;0.50;;;;;;;;;;5029711;28;20030;-76
2021/01/23 07:13:10;;;;;;;0.70;0.63;;;;;;;;;;5031890;28;20026;-77
2021/01/23 07:15:37;;;;;;;0.60;0.60;;;;;;;;;;5030241;28;20109;-78
2021/01/23 07:18:13;;;;;;;0.83;0.70;;;;;;;;;;5030189;28;20425;-76
2021/01/23 07:20:39;;;;;;;0.90;0.60;;;;;;;;;;5029747;28;20400;-77
2021/01/23 07:23:05;;;;;;;1.03;0.83;;;;;;;;;;5030348;28;20483;-76
2021/01/23 07:25:32;;;;;;;1.67;1.27;;;;;;;;;;5040817;28;20053;-76
2021/01/23 07:27:58;;;;;;;4.37;1.87;;;;;;;;;;5016280;28;20399;-77
2021/01/23 07:30:24;;;;;;;0.97;0.90;;;;;;;;;;5032509;28;20044;-76
2021/01/23 07:32:50;;;;;;;0.73;0.70;;;;;;;;;;5046065;28;20094;-78
2021/01/23 07:35:17;;;;;;;1.10;0.73;;;;;;;;;;5032648;28;20077;-77
2021/01/23 07:37:58;;;;;;;3.00;1.70;;;;;;;;;;5039269;28;20545;-76
2021/01/23 07:40:24;;;;;;;0.93;0.70;;;;;;;;;;5034414;28;20087;-76
2021/01/23 07:42:51;;;;;;;1.03;0.80;;;;;;;;;;5037953;28;20115;-76
2021/01/23 07:45:17;;;;;;;2.17;1.63;;;;;;;;;;5041277;28;20029;-78
2021/01/23 07:47:53;;;;;;;1.03;0.80;;;;;;;;;;5031163;28;20068;-76
2021/01/23 07:50:19;;;;;;;2.93;1.80;;;;;;;;;;5030447;28;20053;-75
2021/01/23 07:52:45;;;;;;;2.37;1.67;;;;;;;;;;5029551;28;20080;-76
2021/01/23 07:55:12;;;;;;;2.17;1.60;;;;;;;;;;5030879;28;20075;-76
2021/01/23 07:57:38;;;;;;;2.20;1.30;;;;;;;;;;5030401;28;20394;-76
2021/01/23 08:00:08;;;;;;;1.80;1.13;;;;;;;;;;5031234;28;20035;-76
2021/01/23 08:02:53;;;;;;;2.53;1.60;;;;;;;;;;5031210;28;20026;-76
2021/01/23 08:05:19;;;;;;;1.97;1.23;;;;;;;;;;5013350;28;20025;-77
2021/01/23 08:07:46;;;;;;;1.93;1.23;;;;;;;;;;5028945;28;20057;-77
2021/01/23 08:10:19;;;;;;;3.73;1.87;;;;;;;;;;5030946;28;20485;-77
2021/01/23 08:12:51;;;;;;;1.23;1.07;;;;;;;;;;5011340;28;20464;-76
2021/01/23 08:15:24;;;;;;;1.47;0.90;;;;;;;;;;5028187;28;20045;-77
2021/01/23 08:17:50;;;;;;;2.63;1.70;;;;;;;;;;5029560;28;20484;-77
2021/01/23 08:20:17;;;;;;;2.37;1.30;;;;;;;;;;5030965;28;20037;-77
2021/01/23 08:23:11;;;;;;;3.10;1.70;;;;;;;;;;5012586;28;20029;-75
2021/01/23 08:25:43;;;;;;;1.90;1.00;;;;;;;;;;5044387;28;20083;-75
2021/01/23 08:28:09;;;;;;;2.40;1.07;;;;;;;;;;5050913;28;20021;-74
2021/01/23 08:30:35;;;;;;;3.20;2.13;;;;;;;;;;5045776;28;20025;-75
2021/01/23 08:33:03;;;;;;;3.30;1.93;;;;;;;;;;5049080;28;20063;-76
2021/01/23 08:35:29;;;;;;;3.13;1.97;;;;;;;;;;5044037;28;20036;-75
2021/01/23 08:37:55;;;;;;;2.50;1.50;;;;;;;;;;5054061;28;20023;-75
2021/01/23 08:40:24;;;;;;;1.67;1.03;;;;;;;;;;5050869;28;20499;-74
2021/01/23 08:42:50;;;;;;;2.85;1.58;;;;;;;;;;5058489;28;20021;-79
2021/01/23 08:45:17;;;;;;;3.80;2.17;;;;;;;;;;5047388;28;20341;-77
2021/01/23 08:47:43;;;;;;;1.40;1.03;;;;;;;;;;5027268;28;20036;-76
2021/01/23 08:50:09;;;;;;;3.53;2.27;;;;;;;;;;5045474;28;20033;-77
2021/01/23 08:52:35;;;;;;;3.33;1.77;;;;;;;;;;5041788;28;20107;-77
2021/01/23 08:55:01;;;;;;;2.60;1.37;;;;;;;;;;5048385;28;20047;-77
2021/01/23 08:57:27;;;;;;;2.63;1.67;;;;;;;;;;5047277;28;20036;-75
2021/01/23 08:59:53;;;;;;;3.37;2.00;;;;;;;;;;5054321;28;20104;-76
2021/01/23 09:02:19;;;;;;;2.17;1.60;;;;;;;;;;5048365;28;20450;-78
2021/01/23 09:04:45;;;;;;;2.87;1.73;;;;;;;;;;5033973;28;20036;-76
2021/01/23 09:07:11;;;;;;;2.20;1.63;;;;;;;;;;5039467;28;20036;-76
2021/01/23 09:09:37;;;;;;;2.90;1.70;;;;;;;;;;5046632;28;20029;-76
2021/01/23 09:12:04;;;;;;;2.93;1.60;;;;;;;;;;5043659;28;20056;-75
2021/01/23 09:14:30;;;;;;;2.30;1.20;;;;;;;;;;5049020;28;20040;-77
2021/01/23 09:16:56;;;;;;;4.30;2.27;;;;;;;;;;5035209;28;20037;-78
2021/01/23 09:19:22;;;;;;;3.83;2.20;;;;;;;;;;5051737;28;20083;-76
2021/01/23 09:21:48;;;;;;;4.07;2.30;;;;;;;;;;5050778;28;20055;-76
2021/01/23 09:24:14;;;;;;;3.03;1.37;;;;;;;;;;5043285;28;20048;-77
2021/01/23 09:26:40;;;;;;;4.03;2.17;;;;;;;;;;5045487;28;20091;-76
2021/01/23 09:29:06;;;;;;;2.70;1.50;;;;;;;;;;5046236;28;20075;-77
2021/01/23 09:31:32;;;;;;;2.83;1.63;;;;;;;;;;5051294;28;20029;-77
2021/01/23 09:33:58;;;;;;;4.50;2.57;;;;;;;;;;5050832;28;20087;-76
2021/01/23 09:36:25;;;;;;;3.97;2.20;;;;;;;;;;5042342;28;20056;-76
2021/01/23 09:38:52;;;;;;;4.07;2.53;;;;;;;;;;5040833;28;20476;-80
2021/01/23 09:41:18;;;;;;;4.33;1.93;;;;;;;;;;5050713;28;20025;-77
2021/01/23 09:43:43;;;;;;;4.83;2.53;;;;;;;;;;5051905;28;20036;-76
2021/01/23 09:46:10;;;;;;;4.57;2.53;;;;;;;;;;5049879;28;20052;-78
2021/01/23 09:48:36;;;;;;;4.30;2.50;;;;;;;;;;5042012;28;20172;-77
2021/01/23 09:51:02;;;;;;;4.13;2.00;;;;;;;;;;5050848;28;20032;-77
2021/01/23 09:53:28;;;;;;;6.07;2.70;;;;;;;;;;5050412;28;20049;-76
2021/01/23 09:55:54;;;;;;;4.87;2.83;;;;;;;;;;5054461;28;20102;-77
2021/01/23 09:58:20;;;;;;;4.00;2.50;;;;;;;;;;5052091;28;20036;-76
2021/01/23 10:00:47;;;;;;;5.37;2.60;;;;;;;;;;5052169;28;20041;-76
2021/01/23 10:03:14;;;;;;;3.87;2.40;;;;;;;;;;5050784;28;20037;-76
2021/01/23 10:05:40;;;;;;;4.67;2.53;;;;;;;;;;5050410;28;20040;-79
2021/01/23 10:08:06;;;;;;;4.00;2.40;;;;;;;;;;5035675;28;20448;-76
2021/01/23 10:10:32;;;;;;;5.07;2.50;;;;;;;;;;5039433;28;20113;-78
2021/01/23 10:12:58;;;;;;;7.00;3.33;;;;;;;;;;5035930;28;20403;-78
2021/01/23 10:15:24;;;;;;;4.30;2.43;;;;;;;;;;5049265;28;20040;-77
2021/01/23 10:17:50;;;;;;;5.18;2.92;;;;;;;;;;5049213;28;20100;-77
2021/01/23 10:20:16;;;;;;;6.43;2.80;;;;;;;;;;5049784;28;20128;-77
2021/01/23 10:22:43;;;;;;;6.17;3.77;;;;;;;;;;5049696;28;20021;-79
2021/01/23 10:25:09;;;;;;;6.60;3.33;;;;;;;;;;5049354;28;20053;-78
2021/01/23 10:27:35;;;;;;;6.40;3.30;;;;;;;;;;5050330;28;20557;-80
2021/01/23 10:30:01;;;;;;;6.80;3.40;;;;;;;;;;5049040;28;20041;-77
2021/01/23 10:32:27;;;;;;;6.50;3.53;;;;;;;;;;5046036;28;20836;-79
2021/01/23 10:34:53;;;;;;;6.80;3.80;;;;;;;;;;5048529;28;20112;-78
2021/01/23 10:37:19;;;;;;;6.47;4.10;;;;;;;;;;5052495;28;20031;-77
2021/01/23 10:39:45;;;;;;;6.50;2.50;;;;;;;;;;5044504;28;20037;-77
2021/01/23 10:42:11;;;;;;;6.22;3.05;;;;;;;;;;5046058;28;20481;-76
2021/01/23 10:44:40;;;;;;;4.90;3.30;;;;;;;;;;5048833;28;20122;-77
2021/01/23 10:47:09;;;;;;;7.03;4.07;;;;;;;;;;5040838;28;20021;-76
2021/01/23 10:49:36;;;;;;;5.78;3.20;;;;;;;;;;5040267;28;20051;-78
2021/01/23 10:52:02;;;;;;;6.03;3.63;;;;;;;;;;5049507;28;20029;-76
2021/01/23 10:54:28;;;;;;;6.57;3.43;;;;;;;;;;5048886;28;20399;-78
2021/01/23 10:56:54;;;;;;;6.78;3.50;;;;;;;;;;5049196;28;20032;-78
2021/01/23 10:59:20;;;;;;;5.90;3.28;;;;;;;;;;5049290;28;20025;-76
2021/01/23 11:01:48;;;;;;;7.43;3.97;;;;;;;;;;5048003;28;20121;-77
2021/01/23 11:04:14;;;;;;;8.15;4.03;;;;;;;;;;5050025;28;20035;-76
2021/01/23 11:06:40;;;;;;;6.20;3.97;;;;;;;;;;5028693;28;20029;-77
2021/01/23 11:09:06;;;;;;;5.82;3.60;;;;;;;;;;5052932;28;20100;-77
2021/01/23 11:11:32;;;;;;;7.63;4.22;;;;;;;;;;5051756;28;20029;-78
2021/01/23 11:13:58;;;;;;;4.93;3.60;;;;;;;;;;5049805;28;20032;-77
2021/01/23 11:16:24;;;;;;;5.50;3.70;;;;;;;;;;5049822;28;20060;-77
2021/01/23 11:18:51;;;;;;;5.40;3.38;;;;;;;;;;5048093;28;20541;-77
2021/01/23 11:21:17;;;;;;;6.60;3.53;;;;;;;;;;5048938;28;20391;-78
2021/01/23 11:23:43;;;;;;;6.00;3.25;;;;;;;;;;5042873;28;20084;-78
2021/01/23 11:26:09;;;;;;;7.00;3.97;;;;;;;;;;5047682;28;20052;-77
2021/01/23 11:28:36;;;;;;;6.80;3.80;;;;;;;;;;5045381;28;20373;-77
2021/01/23 11:31:02;;;;;;;5.97;3.67;;;;;;;;;;5046692;28;20416;-79
2021/01/23 11:33:28;;;;;;;5.13;3.72;;;;;;;;;;5049890;28;20060;-77
2021/01/23 11:35:54;;;;;;;6.25;3.80;;;;;;;;;;5049007;28;20069;-77
2021/01/23 11:38:20;;;;;;;5.85;3.47;;;;;;;;;;5048757;28;20029;-78
2021/01/23 11:40:46;;;;;;;6.47;3.78;;;;;;;;;;5049384;28;20040;-78
2021/01/23 11:43:12;;;;;;;6.53;3.85;;;;;;;;;;5040336;28;20018;-78
2021/01/23 11:45:38;;;;;;;6.13;3.97;;;;;;;;;;5046845;28;20040;-78
2021/01/23 11:48:04;;;;;;;6.15;3.92;;;;;;;;;;5041999;28;20434;-77
2021/01/23 11:50:30;;;;;;;6.65;3.90;;;;;;;;;;5049219;28;20047;-75
2021/01/23 11:52:56;;;;;;;6.72;4.00;;;;;;;;;;5048753;28;20128;-74
2021/01/23 11:55:22;;;;;;;5.57;3.35;;;;;;;;;;5048631;28;20427;-77
2021/01/23 11:57:48;;;;;;;6.57;4.32;;;;;;;;;;5048527;28;20184;-79
2021/01/23 12:00:15;;;;;;;6.47;3.58;;;;;;;;;;5031146;28;20033;-79
2021/01/23 12:02:41;;;;;;;4.97;3.42;;;;;;;;;;5049096;28;20044;-79
2021/01/23 12:05:07;;;;;;;5.20;3.40;;;;;;;;;;5048321;28;20063;-79
2021/01/23 12:07:33;;;;;;;5.90;3.08;;;;;;;;;;5045360;28;20025;-79
2021/01/23 12:09:59;;;;;;;4.60;3.22;;;;;;;;;;5049034;28;20036;-78
2021/01/23 12:12:25;;;;;;;5.50;3.63;;;;;;;;;;5053097;28;20029;-77
2021/01/23 12:14:52;;;;;;;4.80;3.22;;;;;;;;;;5052436;28;20111;-80
2021/01/23 12:17:18;;;;;;;6.65;3.40;;;;;;;;;;5050951;28;20036;-77
2021/01/23 12:19:44;;;;;;;4.72;2.88;;;;;;;;;;5052678;28;20037;-78
2021/01/23 12:22:10;;;;;;;3.85;2.80;;;;;;;;;;5044170;28;20051;-78
2021/01/23 12:24:36;;;;;;;5.55;2.80;;;;;;;;;;5050912;28;20632;-78
2021/01/23 12:27:03;;;;;;;5.35;3.00;;;;;;;;;;5037644;28;20039;-79
2021/01/23 12:29:30;;;;;;;5.88;3.25;;;;;;;;;;5045074;28;20032;-79
2021/01/23 12:32:02;;;;;;;5.25;3.33;;;;;;;;;;5051531;28;20036;-78
2021/01/23 12:34:28;;;;;;;5.88;3.22;;;;;;;;;;5044859;28;20175;-78
2021/01/23 12:36:54;;;;;;;5.32;3.03;;;;;;;;;;5040439;28;20429;-77
2021/01/23 12:39:21;;;;;;;4.47;2.95;;;;;;;;;;5048737;28;20587;-79
2021/01/23 12:41:47;;;;;;;6.53;3.15;;;;;;;;;;5051065;28;20017;-78
2021/01/23 12:44:13;;;;;;;4.57;2.88;;;;;;;;;;5052067;28;20044;-78
2021/01/23 12:46:39;;;;;;;6.22;2.90;;;;;;;;;;5051800;28;20106;-77
2021/01/23 12:49:05;;;;;;;3.92;2.78;;;;;;;;;;5051266;28;20040;-77
2021/01/23 12:51:31;;;;;;;5.65;3.30;;;;;;;;;;5051651;28;20020;-78
2021/01/23 12:53:57;;;;;;;4.40;2.88;;;;;;;;;;5050977;28;20020;-77
2021/01/23 12:56:23;;;;;;;4.72;3.10;;;;;;;;;;5044881;28;20494;-78
2021/01/23 12:58:48;;;;;;;5.30;3.08;;;;;;;;;;5051831;28;20048;-77
2021/01/23 13:01:14;;;;;;;6.63;2.67;;;;;;;;;;5050898;28;20049;-80
2021/01/23 13:03:40;;;;;;;5.32;3.08;;;;;;;;;;5053406;28;20067;-77
2021/01/23 13:06:07;;;;;;;3.65;2.47;;;;;;;;;;5046023;28;20029;-78
2021/01/23 13:08:32;;;;;;;4.85;2.80;;;;;;;;;;5051607;28;20033;-77
2021/01/23 13:10:58;;;;;;;5.10;2.80;;;;;;;;;;5045696;28;20031;-78
2021/01/23 13:13:25;;;;;;;4.30;3.10;;;;;;;;;;5048988;28;20072;-77
2021/01/23 13:15:52;;;;;;;5.00;2.83;;;;;;;;;;5033862;28;20245;-78
2021/01/23 13:18:18;;;;;;;5.25;2.70;;;;;;;;;;5054886;28;20025;-78
2021/01/23 13:20:44;;;;;;;4.25;3.10;;;;;;;;;;5045835;28;20116;-78
2021/01/23 13:23:10;;;;;;;4.18;2.58;;;;;;;;;;5037583;28;20432;-78
2021/01/23 13:25:36;;;;;;;5.30;2.97;;;;;;;;;;5051291;28;20147;-80
2021/01/23 13:28:02;;;;;;;4.82;3.00;;;;;;;;;;5036739;28;20029;-78
2021/01/23 13:30:28;;;;;;;5.13;2.95;;;;;;;;;;5046412;28;20388;-75
2021/01/23 13:32:54;;;;;;;3.60;2.30;;;;;;;;;;5046561;28;20033;-77
2021/01/23 13:35:20;;;;;;;4.35;2.22;;;;;;;;;;5039651;28;20056;-78
2021/01/23 13:37:46;;;;;;;5.53;2.78;;;;;;;;;;5043295;28;20060;-78
2021/01/23 13:40:12;;;;;;;5.30;2.80;;;;;;;;;;5036121;28;20082;-78
2021/01/23 13:42:38;;;;;;;5.72;2.92;;;;;;;;;;5050989;28;20021;-80
2021/01/23 13:45:08;;;;;;;4.32;3.03;;;;;;;;;;5042583;28;20063;-80
2021/01/23 13:47:34;;;;;;;4.45;2.97;;;;;;;;;;5050165;28;20025;-81
2021/01/23 13:50:00;;;;;;;7.75;3.13;;;;;;;;;;5044149;28;20039;-79
2021/01/23 13:52:28;;;;;;;6.45;2.75;;;;;;;;;;5046444;28;20039;-79
2021/01/23 13:54:54;;;;;;;6.38;3.20;;;;;;;;;;5036669;28;20037;-77
2021/01/23 13:57:19;;;;;;;5.55;3.03;;;;;;;;;;5043039;28;20036;-80
2021/01/23 13:59:47;;;;;;;5.50;3.25;;;;;;;;;;5032707;28;20035;-78
2021/01/23 14:02:13;;;;;;;5.88;3.08;;;;;;;;;;5047778;28;20056;-78
2021/01/23 14:04:42;;;;;;;4.50;2.90;;;;;;;;;;5044473;28;20094;-78
2021/01/23 14:07:07;;;;;;;4.22;2.70;;;;;;;;;;5042033;28;20036;-77
2021/01/23 14:09:33;;;;;;;6.13;3.00;;;;;;;;;;5043692;28;20021;-78
2021/01/23 14:11:59;;;;;;;5.65;2.97;;;;;;;;;;5050276;28;20033;-79
2021/01/23 14:14:26;;;;;;;6.90;3.00;;;;;;;;;;5043814;28;20037;-78
2021/01/23 14:16:52;;;;;;;5.43;3.22;;;;;;;;;;5050157;28;20394;-79
2021/01/23 14:19:19;;;;;;;4.75;3.00;;;;;;;;;;5052835;28;20619;-80
2021/01/23 14:21:45;;;;;;;5.00;3.00;;;;;;;;;;5049564;28;20501;-79
2021/01/23 14:24:11;;;;;;;4.65;3.10;;;;;;;;;;5030349;28;20465;-77
2021/01/23 14:26:37;;;;;;;4.25;2.80;;;;;;;;;;5048548;28;20119;-78
2021/01/23 14:29:03;;;;;;;5.68;3.38;;;;;;;;;;5041121;28;20476;-75
2021/01/23 14:31:29;;;;;;;4.38;3.00;;;;;;;;;;5045141;28;20032;-77
2021/01/23 14:33:55;;;;;;;5.95;4.30;;;;;;;;;;5045694;28;20016;-76
2021/01/23 14:36:22;;;;;;;7.10;4.30;;;;;;;;;;5049568;28;20499;-76
2021/01/23 14:38:48;;;;;;;4.70;3.28;;;;;;;;;;5040920;28;20029;-76
2021/01/23 14:41:14;;;;;;;4.85;3.30;;;;;;;;;;5050214;28;20028;-78